createdAt,value
2018-04-29T00:01:40.640Z,9.90
2018-04-29T00:04:43.943Z,10.00
2018-04-29T00:07:47.329Z,9.90
2018-04-29T00:10:50.738Z,10.00
2018-04-29T00:13:54.053Z,9.90
2018-04-29T00:16:57.440Z,9.90
2018-04-29T00:20:00.841Z,9.90
2018-04-29T00:23:04.170Z,9.90
2018-04-29T00:26:08.260Z,9.70
2018-04-29T00:29:11.659Z,9.70
2018-04-29T00:32:15.052Z,9.70
2018-04-29T00:35:18.359Z,9.50
2018-04-29T00:38:22.456Z,9.40
2018-04-29T00:41:25.758Z,9.30
2018-04-29T00:44:29.072Z,9.30
2018-04-29T00:47:32.458Z,9.10
2018-04-29T00:50:35.830Z,9.00
2018-04-29T00:53:39.153Z,9.00
2018-04-29T00:56:42.675Z,9.00
2018-04-29T00:59:45.996Z,9.10
2018-04-29T01:02:50.092Z,9.20
2018-04-29T01:05:53.545Z,9.20
2018-04-29T01:08:56.826Z,9.30
2018-04-29T01:12:00.180Z,9.50
2018-04-29T01:15:03.491Z,9.50
2018-04-29T01:18:06.845Z,9.60
2018-04-29T01:21:10.266Z,9.70
2018-04-29T01:24:13.599Z,9.70
2018-04-29T01:27:17.784Z,9.80
2018-04-29T01:30:21.093Z,9.80
2018-04-29T01:33:24.421Z,9.80
2018-04-29T01:36:28.510Z,9.90
2018-04-29T01:39:32.612Z,9.90
2018-04-29T01:42:35.950Z,10.00
2018-04-29T01:45:40.035Z,10.00
2018-04-29T01:48:43.386Z,10.00
2018-04-29T01:51:46.717Z,10.10
2018-04-29T01:54:50.116Z,10.10
2018-04-29T01:57:53.437Z,10.10
2018-04-29T02:00:56.823Z,10.10
2018-04-29T02:04:00.162Z,10.10
2018-04-29T02:07:04.281Z,10.10
2018-04-29T02:10:08.375Z,10.10
2018-04-29T02:13:11.754Z,10.10
2018-04-29T02:16:15.143Z,10.10
2018-04-29T02:19:18.458Z,10.00
2018-04-29T02:22:21.785Z,10.10
2018-04-29T02:25:25.968Z,10.00
2018-04-29T02:28:29.370Z,10.00
2018-04-29T02:31:32.766Z,10.10
2018-04-29T02:34:36.091Z,10.00
2018-04-29T02:37:40.289Z,10.00
2018-04-29T02:40:43.682Z,10.00
2018-04-29T02:43:47.018Z,10.10
2018-04-29T02:46:51.114Z,9.90
2018-04-29T02:49:54.484Z,9.90
2018-04-29T02:52:57.835Z,9.90
2018-04-29T02:56:02.017Z,10.10
2018-04-29T02:59:05.422Z,10.00
2018-04-29T03:02:08.770Z,10.10
2018-04-29T03:05:12.068Z,9.90
2018-04-29T03:08:15.398Z,9.90
2018-04-29T03:11:18.707Z,9.90
2018-04-29T03:14:22.113Z,9.80
2018-04-29T03:17:25.507Z,9.90
2018-04-29T03:20:28.829Z,9.90
2018-04-29T03:23:32.194Z,9.80
2018-04-29T03:26:35.506Z,9.90
2018-04-29T03:29:38.834Z,9.90
2018-04-29T03:32:42.196Z,9.80
2018-04-29T03:35:45.534Z,9.80
2018-04-29T03:38:49.613Z,9.80
2018-04-29T03:41:53.017Z,9.80
2018-04-29T03:44:56.328Z,9.80
2018-04-29T03:47:59.663Z,9.90
2018-04-29T03:51:02.974Z,9.90
2018-04-29T03:54:06.409Z,10.00
2018-04-29T03:57:27.560Z,9.90
2018-04-29T04:01:02.373Z,10.00
2018-04-29T04:04:05.712Z,10.00
2018-04-29T04:07:09.892Z,9.90
2018-04-29T04:10:13.287Z,9.80
2018-04-29T04:13:16.670Z,10.00
2018-04-29T04:16:20.085Z,9.90
2018-04-29T04:19:23.414Z,9.80
2018-04-29T04:22:27.514Z,9.60
2018-04-29T04:25:30.827Z,9.60
2018-04-29T04:28:34.910Z,9.40
2018-04-29T04:31:38.305Z,9.50
2018-04-29T04:34:41.705Z,9.60
2018-04-29T04:37:45.113Z,9.50
2018-04-29T04:40:48.505Z,9.50
2018-04-29T04:43:51.915Z,9.70
2018-04-29T04:46:55.240Z,9.80
2018-04-29T04:49:58.562Z,9.80
2018-04-29T04:53:01.902Z,9.90
2018-04-29T04:56:05.209Z,9.90
2018-04-29T04:59:08.605Z,9.90
2018-04-29T05:02:11.951Z,10.10
2018-04-29T05:05:16.030Z,10.10
2018-04-29T05:08:19.408Z,10.10
2018-04-29T05:11:22.725Z,10.10
2018-04-29T05:14:26.116Z,10.10
2018-04-29T05:17:29.521Z,10.20
2018-04-29T05:20:32.917Z,10.20
2018-04-29T05:23:36.421Z,10.20
2018-04-29T05:26:39.818Z,10.30
2018-04-29T05:29:43.145Z,10.40
2018-04-29T05:32:47.270Z,10.50
2018-04-29T05:35:51.444Z,10.60
2018-04-29T05:38:54.840Z,10.60
2018-04-29T05:41:58.245Z,10.70
2018-04-29T05:45:01.661Z,10.70
2018-04-29T05:48:05.864Z,10.90
2018-04-29T05:51:09.264Z,10.90
2018-04-29T05:54:12.671Z,11.00
2018-04-29T05:57:16.083Z,11.20
2018-04-29T06:00:19.515Z,11.40
2018-04-29T06:03:22.821Z,11.50
2018-04-29T06:06:27.085Z,11.50
2018-04-29T06:09:30.325Z,11.50
2018-04-29T06:12:34.561Z,11.60
2018-04-29T06:15:37.941Z,11.60
2018-04-29T06:18:41.253Z,11.60
2018-04-29T06:21:45.549Z,11.80
2018-04-29T06:24:48.878Z,11.70
2018-04-29T06:27:52.208Z,11.50
2018-04-29T06:30:55.516Z,11.60
2018-04-29T06:33:58.844Z,11.70
2018-04-29T06:37:03.050Z,11.50
2018-04-29T06:40:06.377Z,11.50
2018-04-29T06:43:10.473Z,11.40
2018-04-29T06:46:13.798Z,11.40
2018-04-29T06:49:19.091Z,11.50
2018-04-29T06:52:22.506Z,11.50
2018-04-29T06:55:25.903Z,11.80
2018-04-29T06:58:29.248Z,11.60
2018-04-29T07:01:32.571Z,11.60
2018-04-29T07:04:35.926Z,11.60
2018-04-29T07:07:40.005Z,11.50
2018-04-29T07:10:43.342Z,11.50
2018-04-29T07:13:47.539Z,11.50
2018-04-29T07:16:50.933Z,11.50
2018-04-29T07:19:54.292Z,11.70
2018-04-29T07:22:58.388Z,12.10
2018-04-29T07:26:01.786Z,12.10
2018-04-29T07:29:05.172Z,12.00
2018-04-29T07:32:09.264Z,12.20
2018-04-29T07:35:12.665Z,12.10
2018-04-29T07:38:16.015Z,12.30
2018-04-29T07:41:19.371Z,12.20
2018-04-29T07:44:22.704Z,12.50
2018-04-29T07:47:26.148Z,12.40
2018-04-29T07:50:29.496Z,12.80
2018-04-29T07:53:33.682Z,12.90
2018-04-29T07:56:36.998Z,12.80
2018-04-29T07:59:41.510Z,13.20
2018-04-29T08:02:45.625Z,13.60
2018-04-29T08:05:50.540Z,13.60
2018-04-29T08:08:53.859Z,13.60
2018-04-29T08:15:02.714Z,13.70
2018-04-29T08:18:06.087Z,13.70
2018-04-29T08:21:09.481Z,13.90
2018-04-29T08:24:12.842Z,14.20
2018-04-29T08:27:16.161Z,14.30
2018-04-29T08:30:19.499Z,14.40
2018-04-29T08:33:22.877Z,14.60
2018-04-29T08:36:26.285Z,14.60
2018-04-29T08:39:29.594Z,14.70
2018-04-29T08:42:33.005Z,14.60
2018-04-29T08:45:37.193Z,13.90
2018-04-29T08:48:40.615Z,13.90
2018-04-29T08:51:43.938Z,13.50
2018-04-29T08:54:48.106Z,14.10
2018-04-29T08:57:52.133Z,14.60
2018-04-29T09:00:55.486Z,14.60
2018-04-29T09:03:58.902Z,14.50
2018-04-29T09:07:02.231Z,14.90
2018-04-29T09:10:05.636Z,14.70
2018-04-29T09:13:09.049Z,14.30
2018-04-29T09:16:12.435Z,14.40
2018-04-29T09:19:15.781Z,14.50
2018-04-29T09:22:19.149Z,14.70
2018-04-29T09:25:22.511Z,15.10
2018-04-29T09:28:25.825Z,15.10
2018-04-29T09:31:29.248Z,14.90
2018-04-29T09:34:32.603Z,14.50
2018-04-29T09:37:35.953Z,14.30
2018-04-29T09:40:39.281Z,14.50
2018-04-29T09:43:42.662Z,14.90
2018-04-29T09:46:46.025Z,15.00
2018-04-29T09:49:49.371Z,15.00
2018-04-29T09:52:52.703Z,14.90
2018-04-29T09:55:56.123Z,15.00
2018-04-29T09:58:59.441Z,15.20
2018-04-29T10:02:02.803Z,15.30
2018-04-29T10:05:06.126Z,15.10
2018-04-29T10:08:09.498Z,14.90
2018-04-29T10:11:12.817Z,14.90
2018-04-29T10:14:16.156Z,14.70
2018-04-29T10:17:20.238Z,14.50
2018-04-29T10:20:23.620Z,14.50
2018-04-29T10:23:27.034Z,14.50
2018-04-29T10:26:31.956Z,14.70
2018-04-29T10:29:35.260Z,14.70
2018-04-29T10:32:40.239Z,15.00
2018-04-29T10:35:43.485Z,15.10
2018-04-29T10:38:46.847Z,15.20
2018-04-29T10:41:50.904Z,15.00
2018-04-29T10:44:54.298Z,15.00
2018-04-29T10:47:57.604Z,14.90
2018-04-29T10:51:00.949Z,14.90
2018-04-29T10:54:05.021Z,14.90
2018-04-29T10:57:08.365Z,14.90
2018-04-29T11:00:12.445Z,15.20
2018-04-29T11:03:15.845Z,15.20
2018-04-29T11:06:19.232Z,15.30
2018-04-29T11:09:22.626Z,15.50
2018-04-29T11:12:25.948Z,15.40
2018-04-29T11:15:29.285Z,15.00
2018-04-29T11:18:32.636Z,14.90
2018-04-29T11:21:35.989Z,14.90
2018-04-29T11:24:39.418Z,14.60
2018-04-29T11:27:42.834Z,14.40
2018-04-29T11:30:46.154Z,14.10
2018-04-29T11:33:50.429Z,14.10
2018-04-29T11:36:53.904Z,14.20
2018-04-29T11:39:57.245Z,14.10
2018-04-29T11:43:00.566Z,14.10
2018-04-29T11:46:03.948Z,14.00
2018-04-29T11:49:07.350Z,13.80
2018-04-29T11:52:10.747Z,13.70
2018-04-29T11:55:14.091Z,13.80
2018-04-29T11:58:18.270Z,14.20
2018-04-29T12:01:21.705Z,14.10
2018-04-29T12:04:25.827Z,14.30
2018-04-29T12:07:29.172Z,14.20
2018-04-29T12:10:32.586Z,14.40
2018-04-29T12:13:35.912Z,14.70
2018-04-29T12:16:40.220Z,14.80
2018-04-29T12:19:43.585Z,14.80
2018-04-29T12:22:47.137Z,15.20
2018-04-29T12:25:51.246Z,15.00
2018-04-29T12:28:54.581Z,14.90
2018-04-29T12:31:57.914Z,15.30
2018-04-29T12:35:01.346Z,15.40
2018-04-29T12:38:04.672Z,15.30
2018-04-29T12:41:08.117Z,15.20
2018-04-29T12:44:11.568Z,15.10
2018-04-29T12:47:14.931Z,15.10
2018-04-29T12:50:18.315Z,15.30
2018-04-29T12:53:21.652Z,15.10
2018-04-29T12:56:25.743Z,14.30
2018-04-29T12:59:30.614Z,14.00
2018-04-29T13:02:33.948Z,14.00
2018-04-29T13:05:37.394Z,13.90
2018-04-29T13:08:41.469Z,13.90
2018-04-29T13:11:44.874Z,13.50
2018-04-29T13:14:48.189Z,13.50
2018-04-29T13:17:51.589Z,13.30
2018-04-29T13:20:54.937Z,13.20
2018-04-29T13:23:58.287Z,13.30
2018-04-29T13:27:01.625Z,13.30
2018-04-29T13:30:05.738Z,13.20
2018-04-29T13:33:09.829Z,13.10
2018-04-29T13:36:13.205Z,13.10
2018-04-29T13:39:16.522Z,12.90
2018-04-29T13:42:20.029Z,12.50
2018-04-29T13:45:23.308Z,12.40
2018-04-29T13:48:26.718Z,12.40
2018-04-29T13:51:30.029Z,12.40
2018-04-29T13:54:34.211Z,12.20
2018-04-29T13:57:37.626Z,12.20
2018-04-29T14:00:42.531Z,12.30
2018-04-29T14:03:45.853Z,12.20
2018-04-29T14:06:49.192Z,12.10
2018-04-29T14:09:53.291Z,11.90
2018-04-29T14:12:56.658Z,11.90
2018-04-29T14:15:59.985Z,12.00
2018-04-29T14:19:03.320Z,12.00
2018-04-29T14:22:06.692Z,11.90
2018-04-29T14:25:10.808Z,11.80
2018-04-29T14:28:14.176Z,11.70
2018-04-29T14:31:17.605Z,11.70
2018-04-29T14:34:20.888Z,11.60
2018-04-29T14:37:24.294Z,11.60
2018-04-29T14:40:27.646Z,11.70
2018-04-29T14:43:31.014Z,12.00
2018-04-29T14:46:35.098Z,12.00
2018-04-29T14:49:38.518Z,11.90
2018-04-29T14:52:42.610Z,12.10
2018-04-29T14:55:46.014Z,12.10
2018-04-29T14:58:49.407Z,12.20
2018-04-29T15:01:52.813Z,12.20
2018-04-29T15:04:56.272Z,12.40
2018-04-29T15:08:00.003Z,12.50
2018-04-29T15:11:04.500Z,12.50
2018-04-29T15:14:07.957Z,12.50
2018-04-29T15:17:11.637Z,12.40
2018-04-29T15:20:15.208Z,12.40
2018-04-29T15:23:18.915Z,12.30
2018-04-29T15:26:22.329Z,12.30
2018-04-29T15:29:25.987Z,12.10
2018-04-29T15:32:30.095Z,11.90
2018-04-29T15:35:33.487Z,11.90
2018-04-29T15:38:36.899Z,11.80
2018-04-29T15:41:40.286Z,11.80
2018-04-29T15:44:43.692Z,11.70
2018-04-29T15:47:47.011Z,11.70
2018-04-29T15:50:51.132Z,11.40
2018-04-29T15:53:55.226Z,11.40
2018-04-29T15:56:58.578Z,11.40
2018-04-29T16:00:01.922Z,11.30
2018-04-29T16:03:05.271Z,11.30
2018-04-29T16:06:08.635Z,11.20
2018-04-29T16:09:11.962Z,11.30
2018-04-29T16:12:15.303Z,11.40
2018-04-29T16:15:18.641Z,11.30
2018-04-29T16:18:22.838Z,11.30
2018-04-29T16:21:26.200Z,11.30
2018-04-29T16:24:29.621Z,11.30
2018-04-29T16:27:32.956Z,11.30
2018-04-29T16:30:37.157Z,11.40
2018-04-29T16:33:40.469Z,11.40
2018-04-29T16:36:44.576Z,11.40
2018-04-29T16:39:47.911Z,11.40
2018-04-29T16:42:51.277Z,11.40
2018-04-29T16:45:55.422Z,11.70
2018-04-29T16:48:58.880Z,11.70
2018-04-29T16:52:02.235Z,11.60
2018-04-29T16:55:05.587Z,11.60
2018-04-29T16:58:08.984Z,11.70
2018-04-29T17:01:12.365Z,11.70
2018-04-29T17:04:15.673Z,11.70
2018-04-29T17:07:19.024Z,11.70
2018-04-29T17:10:22.367Z,11.70
2018-04-29T17:13:25.799Z,11.90
2018-04-29T17:16:29.987Z,11.90
2018-04-29T17:19:33.304Z,11.90
2018-04-29T17:22:36.665Z,11.80
2018-04-29T17:25:40.003Z,11.70
2018-04-29T17:28:43.398Z,11.80
2018-04-29T17:31:46.886Z,11.90
2018-04-29T17:34:50.302Z,11.90
2018-04-29T17:37:53.639Z,11.90
2018-04-29T17:40:56.994Z,11.90
2018-04-29T17:44:01.211Z,11.80
2018-04-29T17:47:04.550Z,11.80
2018-04-29T17:50:08.010Z,11.70
2018-04-29T17:53:11.408Z,11.70
2018-04-29T17:56:14.758Z,11.70
2018-04-29T17:59:18.103Z,11.70
2018-04-29T18:02:21.496Z,11.70
2018-04-29T18:05:24.930Z,11.60
2018-04-29T18:08:29.142Z,11.60
2018-04-29T18:11:33.262Z,11.80
2018-04-29T18:14:37.454Z,11.80
2018-04-29T18:17:40.910Z,11.70
2018-04-29T18:20:44.348Z,11.70
2018-04-29T18:23:47.673Z,11.80
2018-04-29T18:26:51.246Z,11.80
2018-04-29T18:29:54.593Z,11.90
2018-04-29T18:32:58.685Z,11.70
2018-04-29T18:36:02.893Z,11.70
2018-04-29T18:39:06.317Z,11.60
2018-04-29T18:42:09.681Z,11.60
2018-04-29T18:45:13.110Z,11.60
2018-04-29T18:48:16.515Z,11.60
2018-04-29T18:51:19.972Z,11.80
2018-04-29T18:54:23.383Z,11.90
2018-04-29T18:57:26.742Z,12.00
2018-04-29T19:00:30.085Z,11.90
2018-04-29T19:03:33.426Z,11.80
2018-04-29T19:06:37.933Z,11.80
2018-04-29T19:09:41.274Z,11.80
2018-04-29T19:12:44.608Z,11.80
2018-04-29T19:15:48.017Z,11.70
2018-04-29T19:18:51.355Z,11.70
2018-04-29T19:21:55.525Z,11.60
2018-04-29T19:24:58.850Z,11.60
2018-04-29T19:28:04.384Z,11.60
2018-04-29T19:31:07.771Z,11.60
2018-04-29T19:34:11.231Z,11.60
2018-04-29T19:37:14.676Z,11.40
2018-04-29T19:40:19.228Z,11.40
2018-04-29T19:43:23.336Z,11.50
2018-04-29T19:46:26.699Z,11.50
2018-04-29T19:49:30.053Z,11.50
2018-04-29T19:52:34.166Z,11.40
2018-04-29T19:55:38.309Z,11.40
2018-04-29T19:58:41.643Z,11.40
2018-04-29T20:01:44.995Z,11.40
2018-04-29T20:04:49.144Z,11.30
2018-04-29T20:07:53.222Z,11.20
2018-04-29T20:10:56.706Z,11.20
2018-04-29T20:14:00.551Z,11.20
2018-04-29T20:17:03.880Z,11.10
2018-04-29T20:20:07.296Z,11.20
2018-04-29T20:23:10.630Z,11.10
2018-04-29T20:26:14.214Z,11.10
2018-04-29T20:29:17.602Z,11.00
2018-04-29T20:32:38.584Z,11.10
2018-04-29T20:35:42.027Z,11.20
2018-04-29T20:38:45.332Z,11.30
2018-04-29T20:41:48.657Z,11.30
2018-04-29T20:44:52.835Z,11.40
2018-04-29T20:47:56.223Z,11.40
2018-04-29T20:50:59.809Z,11.50
2018-04-29T20:54:03.281Z,11.50
2018-04-29T20:57:06.624Z,11.40
2018-04-29T21:00:10.076Z,11.50
2018-04-29T21:03:14.240Z,11.50
2018-04-29T21:06:17.587Z,11.50
2018-04-29T21:09:21.680Z,11.50
2018-04-29T21:12:25.019Z,11.50
2018-04-29T21:15:28.324Z,11.50
2018-04-29T21:18:31.659Z,11.50
2018-04-29T21:21:35.128Z,11.50
2018-04-29T21:24:38.450Z,11.50
2018-04-29T21:27:41.777Z,11.50
2018-04-29T21:30:45.149Z,11.40
2018-04-29T21:33:48.568Z,11.40
2018-04-29T21:36:51.986Z,11.40
2018-04-29T21:39:56.171Z,11.40
2018-04-29T21:42:59.568Z,11.40
2018-04-29T21:46:02.981Z,11.30
2018-04-29T21:49:06.310Z,11.30
2018-04-29T21:52:10.414Z,11.20
2018-04-29T21:55:13.732Z,11.20
2018-04-29T21:58:17.906Z,11.10
2018-04-29T22:01:21.224Z,11.10
2018-04-29T22:04:26.200Z,11.00
2018-04-29T22:07:29.524Z,11.00
2018-04-29T22:10:32.862Z,11.00
2018-04-29T22:13:36.190Z,10.90
2018-04-29T22:16:39.538Z,10.80
2018-04-29T22:19:42.848Z,10.70
2018-04-29T22:22:46.217Z,10.70
2018-04-29T22:25:49.520Z,10.70
2018-04-29T22:28:52.851Z,10.60
2018-04-29T22:31:56.179Z,10.70
2018-04-29T22:34:59.500Z,10.60
2018-04-29T22:38:02.816Z,10.60
2018-04-29T22:41:06.159Z,10.60
2018-04-29T22:44:10.393Z,10.50
2018-04-29T22:47:13.722Z,10.50
2018-04-29T22:50:17.148Z,10.50
2018-04-29T22:53:20.481Z,10.50
2018-04-29T22:56:24.579Z,10.50
2018-04-29T22:59:28.110Z,10.50
2018-04-29T23:02:31.548Z,10.50
2018-04-29T23:05:34.845Z,10.50
2018-04-29T23:08:38.152Z,10.50
2018-04-29T23:11:41.473Z,10.40
2018-04-29T23:14:44.803Z,10.40
2018-04-29T23:17:48.252Z,10.40
2018-04-29T23:20:51.643Z,10.40
2018-04-29T23:23:55.033Z,10.30
2018-04-29T23:26:58.360Z,10.30
2018-04-29T23:30:01.753Z,10.40
2018-04-29T23:33:05.078Z,10.40
2018-04-29T23:36:09.182Z,10.40
2018-04-29T23:39:12.549Z,10.40
2018-04-29T23:42:16.044Z,10.40
2018-04-29T23:45:19.357Z,10.40
2018-04-29T23:48:22.757Z,10.40
2018-04-29T23:51:26.161Z,10.40
2018-04-29T23:54:29.553Z,10.50
2018-04-29T23:57:32.869Z,10.60
